Time;durP1;ratioP1;P1;durP2;ratioP2;P2;SDS_P1;SDS_P2;PMS_P1;PMS_P2;Temp;Humidity;BMP_temperature;BMP_pressure;BME280_temperature;BME280_humidity;BME280_pressure;Samples;Min_cycle;Max_cycle;Signal;HPM_P1;HPM_P2
2022/11/27 00:00:22;;;;;;;20.02;9.88;;;7.10;99.90;;;;;;5116262;27;20103;-76
2022/11/27 00:02:47;;;;;;;16.98;7.95;;;6.90;99.90;;;;;;5134858;27;20043;-70
2022/11/27 00:05:13;;;;;;;20.05;6.78;;;7.10;99.90;;;;;;5138199;27;20047;-70
2022/11/27 00:07:39;;;;;;;14.88;5.93;;;6.60;99.90;;;;;;5151503;27;20039;-70
2022/11/27 00:10:06;;;;;;;14.20;5.85;;;6.90;99.90;;;;;;5158751;27;20078;-70
2022/11/27 00:12:32;;;;;;;13.98;5.30;;;6.50;99.90;;;;;;5105293;27;20478;-70
2022/11/27 00:14:58;;;;;;;14.18;5.53;;;7.10;99.90;;;;;;5158672;27;20060;-70
2022/11/27 00:17:24;;;;;;;10.95;4.78;;;6.70;99.90;;;;;;5158642;27;20049;-70
2022/11/27 00:19:49;;;;;;;11.13;5.10;;;6.60;99.90;;;;;;5158528;27;20078;-70
2022/11/27 00:22:15;;;;;;;15.32;5.13;;;6.70;99.90;;;;;;5140617;27;20054;-70
2022/11/27 00:24:42;;;;;;;15.73;5.05;;;7.20;99.90;;;;;;5158488;27;20050;-70
2022/11/27 00:27:09;;;;;;;12.75;4.93;;;7.00;99.90;;;;;;5139960;27;20050;-69
2022/11/27 00:29:34;;;;;;;12.95;5.60;;;7.00;99.90;;;;;;5139929;27;20057;-70
2022/11/27 00:32:00;;;;;;;12.98;5.35;;;6.60;99.90;;;;;;5140704;27;20386;-70
2022/11/27 00:34:26;;;;;;;12.63;5.43;;;7.20;99.90;;;;;;5158842;27;20130;-70
2022/11/27 00:36:51;;;;;;;10.80;4.95;;;6.80;99.90;;;;;;5157030;27;20043;-69
2022/11/27 00:39:17;;;;;;;13.75;5.20;;;6.70;99.90;;;;;;5158559;27;20157;-70
2022/11/27 00:41:43;;;;;;;12.80;5.05;;;6.80;99.90;;;;;;5138992;27;20059;-70
2022/11/27 00:44:09;;;;;;;13.65;5.57;;;6.70;99.90;;;;;;5158141;27;20050;-70
2022/11/27 00:46:35;;;;;;;11.65;5.53;;;6.50;99.90;;;;;;5158062;27;20050;-70
2022/11/27 00:49:03;;;;;;;11.43;4.40;;;6.50;99.90;;;;;;5157938;27;20046;-70
2022/11/27 00:51:29;;;;;;;12.55;5.68;;;6.80;99.90;;;;;;5157988;27;20078;-70
2022/11/27 00:53:55;;;;;;;12.05;5.45;;;6.60;99.90;;;;;;5157912;27;20046;-70
2022/11/27 00:56:24;;;;;;;14.13;4.90;;;6.50;99.90;;;;;;5158220;27;20073;-70
2022/11/27 00:58:52;;;;;;;10.57;4.88;;;6.90;99.90;;;;;;5157809;27;20046;-69
2022/11/27 01:01:26;;;;;;;10.20;4.75;;;6.40;99.90;;;;;;5158008;27;20387;-70
2022/11/27 01:03:52;;;;;;;14.13;4.82;;;6.90;99.90;;;;;;5158050;27;20062;-70
2022/11/27 01:06:20;;;;;;;9.40;4.95;;;7.30;99.90;;;;;;5157760;27;20470;-70
2022/11/27 01:08:47;;;;;;;11.90;5.25;;;6.60;99.90;;;;;;5157698;27;20042;-70
2022/11/27 01:11:14;;;;;;;12.43;5.15;;;6.50;99.90;;;;;;5156974;27;20039;-71
2022/11/27 01:13:41;;;;;;;10.70;4.45;;;6.80;99.90;;;;;;5157572;27;20049;-70
2022/11/27 01:16:16;;;;;;;9.63;5.20;;;6.50;99.90;;;;;;5139236;27;20078;-70
2022/11/27 01:18:43;;;;;;;11.65;4.88;;;6.60;99.90;;;;;;5157408;27;20089;-70
2022/11/27 01:21:09;;;;;;;10.05;4.97;;;6.80;99.90;;;;;;5157389;27;20050;-70
2022/11/27 01:23:35;;;;;;;10.07;5.20;;;6.50;99.90;;;;;;5158069;27;20046;-70
2022/11/27 01:26:05;;;;;;;10.63;4.22;;;6.90;99.90;;;;;;5157279;27;20050;-70
2022/11/27 01:28:31;;;;;;;12.30;5.45;;;6.30;99.90;;;;;;5157200;27;20035;-70
2022/11/27 01:30:57;;;;;;;11.43;5.22;;;6.50;99.90;;;;;;5157173;27;20406;-71
2022/11/27 01:33:22;;;;;;;11.77;5.20;;;6.70;99.90;;;;;;5157761;27;20047;-71
2022/11/27 01:35:55;;;;;;;11.50;5.00;;;6.60;99.90;;;;;;5138549;27;20038;-70
2022/11/27 01:38:22;;;;;;;10.30;4.50;;;6.30;99.90;;;;;;5138820;27;20077;-70
2022/11/27 01:40:48;;;;;;;10.80;4.45;;;6.40;99.90;;;;;;5138753;27;20050;-70
2022/11/27 01:43:14;;;;;;;10.05;4.85;;;6.90;99.90;;;;;;5156065;27;20057;-70
2022/11/27 01:45:41;;;;;;;11.75;5.00;;;6.10;99.90;;;;;;5156920;27;20046;-70
2022/11/27 01:48:10;;;;;;;11.05;4.88;;;6.50;99.90;;;;;;5121086;27;20050;-70
2022/11/27 01:50:38;;;;;;;11.85;4.75;;;6.50;99.90;;;;;;5156802;27;20420;-69
2022/11/27 01:53:17;;;;;;;10.30;4.63;;;6.20;99.90;;;;;;5156711;27;20042;-69
2022/11/27 01:55:47;;;;;;;10.57;4.68;;;6.20;99.90;;;;;;5137946;27;20161;-70
2022/11/27 01:58:20;;;;;;;8.15;4.50;;;6.30;99.90;;;;;;5138169;27;20095;-70
2022/11/27 02:00:46;;;;;;;11.38;4.80;;;6.30;99.90;;;;;;5156592;27;20046;-70
2022/11/27 02:03:12;;;;;;;9.82;4.70;;;6.80;99.90;;;;;;5156576;27;20095;-70
2022/11/27 02:05:38;;;;;;;11.25;4.75;;;6.80;99.90;;;;;;5138298;27;20085;-70
2022/11/27 02:08:07;;;;;;;11.95;4.40;;;6.70;99.90;;;;;;5156337;27;20052;-70
2022/11/27 02:10:43;;;;;;;12.55;4.90;;;6.30;99.90;;;;;;5137850;27;20069;-70
2022/11/27 02:13:16;;;;;;;12.20;4.70;;;6.40;99.90;;;;;;5155837;27;20042;-70
2022/11/27 02:15:44;;;;;;;10.75;5.05;;;6.00;99.90;;;;;;5156472;27;20053;-70
2022/11/27 02:18:18;;;;;;;9.23;4.72;;;6.30;99.90;;;;;;5120936;27;20046;-70
2022/11/27 02:21:17;;;;;;;10.90;5.07;;;6.30;99.90;;;;;;5156233;27;20108;-70
2022/11/27 02:23:46;;;;;;;13.23;4.82;;;6.00;99.90;;;;;;5137932;27;20454;-69
2022/11/27 02:26:19;;;;;;;10.02;4.43;;;6.00;99.90;;;;;;5156175;27;20070;-70
2022/11/27 02:29:22;;;;;;;9.90;4.28;;;6.30;99.90;;;;;;5156041;27;20046;-69
2022/11/27 02:31:55;;;;;;;11.50;5.03;;;6.30;99.90;;;;;;5055315;28;20052;-70
2022/11/27 02:34:43;;;;;;;8.70;4.28;;;5.90;99.90;;;;;;5144364;27;20398;-70
2022/11/27 02:37:27;;;;;;;12.93;5.22;;;5.90;99.90;;;;;;5137714;27;20169;-69
2022/11/27 02:40:08;;;;;;;11.30;4.88;;;5.90;99.90;;;;;;5155889;27;20045;-70
2022/11/27 02:42:49;;;;;;;13.13;5.10;;;6.30;99.90;;;;;;5137266;27;20129;-70
2022/11/27 02:45:22;;;;;;;11.57;4.75;;;5.90;99.90;;;;;;5156059;27;20046;-69
2022/11/27 02:47:49;;;;;;;8.40;4.40;;;6.20;99.90;;;;;;5155736;27;20385;-70
2022/11/27 02:50:21;;;;;;;12.88;5.00;;;6.40;99.90;;;;;;5155700;27;20114;-70
2022/11/27 02:52:49;;;;;;;11.38;5.13;;;6.30;99.90;;;;;;5156046;27;20074;-70
2022/11/27 02:55:19;;;;;;;11.75;5.03;;;6.10;99.90;;;;;;5155601;27;20088;-70
2022/11/27 02:57:45;;;;;;;14.88;4.35;;;5.90;99.90;;;;;;5155612;27;20474;-70
2022/11/27 03:00:12;;;;;;;9.70;4.80;;;6.40;99.90;;;;;;5154947;27;20146;-69
2022/11/27 03:02:55;;;;;;;10.27;4.40;;;5.80;99.90;;;;;;5155448;27;20125;-70
2022/11/27 03:05:25;;;;;;;7.55;4.30;;;6.00;99.90;;;;;;5137132;27;20562;-69
2022/11/27 03:08:02;;;;;;;11.68;4.82;;;6.00;99.90;;;;;;5155373;27;20046;-70
2022/11/27 03:10:42;;;;;;;9.95;4.03;;;6.00;99.90;;;;;;5155428;27;20046;-70
2022/11/27 03:13:07;;;;;;;7.85;4.25;;;5.90;99.90;;;;;;5154870;27;20042;-69
2022/11/27 03:16:04;;;;;;;10.25;3.80;;;5.90;99.90;;;;;;5155371;27;20046;-69
2022/11/27 03:18:45;;;;;;;13.15;4.93;;;5.90;99.90;;;;;;5155329;27;20043;-70
2022/11/27 03:21:36;;;;;;;12.60;4.00;;;6.10;99.90;;;;;;5137779;27;20076;-69
2022/11/27 03:24:02;;;;;;;10.73;4.38;;;6.10;99.90;;;;;;5137167;27;20120;-70
2022/11/27 03:26:28;;;;;;;7.82;4.15;;;5.50;99.90;;;;;;5137363;27;20355;-69
2022/11/27 03:28:55;;;;;;;9.75;3.95;;;6.00;99.90;;;;;;5155086;27;20046;-70
2022/11/27 03:31:22;;;;;;;10.90;4.57;;;6.20;99.90;;;;;;5155128;27;20047;-69
2022/11/27 03:33:49;;;;;;;11.05;4.75;;;6.00;99.90;;;;;;5155191;27;20111;-69
2022/11/27 03:36:17;;;;;;;9.57;4.45;;;6.20;99.90;;;;;;5155144;27;20038;-70
2022/11/27 03:38:44;;;;;;;9.15;4.05;;;6.00;99.90;;;;;;5155084;27;20042;-70
2022/11/27 03:41:25;;;;;;;7.97;3.75;;;6.10;99.90;;;;;;5155081;27;20050;-69
2022/11/27 03:44:11;;;;;;;8.32;3.85;;;6.00;99.90;;;;;;5154920;27;20074;-69
2022/11/27 03:46:56;;;;;;;7.38;3.65;;;6.00;99.90;;;;;;5155097;27;20047;-69
2022/11/27 03:49:27;;;;;;;10.70;3.95;;;6.30;99.90;;;;;;5154893;27;20039;-69
2022/11/27 03:52:14;;;;;;;9.73;4.18;;;6.10;99.90;;;;;;5155201;27;20046;-69
2022/11/27 03:55:11;;;;;;;8.00;3.92;;;6.10;99.90;;;;;;5154831;27;20042;-69
2022/11/27 03:58:02;;;;;;;9.25;3.70;;;5.90;99.90;;;;;;5154965;27;20486;-68
2022/11/27 04:00:31;;;;;;;8.27;3.35;;;5.90;99.90;;;;;;5154933;27;20099;-69
2022/11/27 04:02:57;;;;;;;9.27;3.28;;;6.20;99.90;;;;;;5154586;27;20482;-69
2022/11/27 04:05:23;;;;;;;12.23;4.00;;;5.70;99.90;;;;;;5136615;27;20050;-69
2022/11/27 04:07:49;;;;;;;9.48;3.33;;;6.40;99.90;;;;;;5154821;27;20089;-69
2022/11/27 04:10:15;;;;;;;9.10;3.55;;;5.90;99.90;;;;;;5103472;27;20045;-69
2022/11/27 04:12:41;;;;;;;8.98;3.50;;;5.90;99.90;;;;;;5139906;27;20080;-69
2022/11/27 04:15:07;;;;;;;6.63;3.45;;;6.10;99.90;;;;;;5158666;27;20379;-69
2022/11/27 04:17:33;;;;;;;8.38;3.63;;;5.80;99.90;;;;;;5140121;27;20406;-70
2022/11/27 04:19:59;;;;;;;7.90;3.30;;;5.80;99.90;;;;;;5140659;27;20038;-69
2022/11/27 04:22:25;;;;;;;8.48;3.42;;;6.30;99.90;;;;;;5158353;27;20046;-69
2022/11/27 04:24:51;;;;;;;8.13;2.85;;;5.90;99.90;;;;;;5140014;27;20077;-69
2022/11/27 04:27:17;;;;;;;8.70;3.25;;;6.20;99.90;;;;;;5140074;27;20095;-68
2022/11/27 04:29:43;;;;;;;7.10;3.05;;;6.50;99.90;;;;;;5158383;27;20135;-69
2022/11/27 04:32:09;;;;;;;7.53;3.05;;;6.30;99.90;;;;;;5140133;27;20050;-69
2022/11/27 04:34:34;;;;;;;6.63;2.90;;;5.90;99.90;;;;;;5158010;27;20393;-69
2022/11/27 04:37:00;;;;;;;6.88;2.83;;;6.00;99.90;;;;;;5140041;27;20046;-69
2022/11/27 04:39:26;;;;;;;6.32;2.55;;;6.30;99.90;;;;;;5158198;27;20049;-69
2022/11/27 04:41:52;;;;;;;8.07;3.08;;;6.10;99.90;;;;;;5157624;27;20053;-69
2022/11/27 04:44:17;;;;;;;9.68;3.22;;;6.70;99.90;;;;;;5158130;27;20047;-69
2022/11/27 04:46:43;;;;;;;6.07;2.75;;;6.20;99.90;;;;;;5157942;27;20129;-69
2022/11/27 04:49:10;;;;;;;7.72;3.20;;;6.00;99.90;;;;;;5158492;27;20046;-69
2022/11/27 04:51:35;;;;;;;8.88;2.72;;;6.00;99.90;;;;;;5157989;27;20133;-69
2022/11/27 04:54:01;;;;;;;9.73;3.17;;;6.20;99.90;;;;;;5157972;27;20081;-69
2022/11/27 04:56:27;;;;;;;8.23;2.58;;;6.20;99.90;;;;;;5139359;27;20050;-69
2022/11/27 04:58:53;;;;;;;10.25;3.28;;;6.00;99.90;;;;;;5157824;27;20147;-69
2022/11/27 05:01:18;;;;;;;7.88;2.40;;;6.20;99.90;;;;;;5157812;27;20129;-69
2022/11/27 05:03:46;;;;;;;9.32;2.75;;;6.00;99.90;;;;;;5157731;27;20047;-69
2022/11/27 05:06:12;;;;;;;6.85;2.67;;;6.30;99.90;;;;;;5157703;27;20057;-69
2022/11/27 05:08:37;;;;;;;5.70;2.35;;;6.30;99.90;;;;;;5157604;27;20035;-69
2022/11/27 05:11:21;;;;;;;7.85;3.20;;;6.30;99.90;;;;;;5157657;27;20046;-69
2022/11/27 05:13:47;;;;;;;;;;;6.70;99.90;;;;;;5157804;27;20127;-69
2022/11/27 05:16:12;;;;;;;8.32;2.97;;;6.20;99.90;;;;;;5157493;27;19973;-68
2022/11/27 05:18:38;;;;;;;10.10;3.20;;;5.90;99.90;;;;;;5157550;27;20039;-69
2022/11/27 05:21:06;;;;;;;6.72;2.58;;;5.80;99.90;;;;;;5157452;27;20107;-69
2022/11/27 05:23:33;;;;;;;7.28;2.45;;;6.20;99.90;;;;;;5156774;27;20046;-69
2022/11/27 05:25:59;;;;;;;6.03;2.65;;;6.20;99.90;;;;;;5157398;27;20478;-69
2022/11/27 05:28:25;;;;;;;8.38;2.67;;;6.30;99.90;;;;;;5157207;27;20080;-69
2022/11/27 05:30:51;;;;;;;6.35;2.83;;;6.00;99.90;;;;;;5138749;27;20042;-68
2022/11/27 05:33:17;;;;;;;9.00;2.85;;;6.20;99.90;;;;;;5157179;27;20111;-69
2022/11/27 05:35:44;;;;;;;9.40;2.50;;;6.30;99.90;;;;;;5157094;27;20552;-69
2022/11/27 05:38:10;;;;;;;4.93;2.45;;;6.20;99.90;;;;;;5136020;27;20499;-70
2022/11/27 05:40:37;;;;;;;9.57;2.47;;;6.00;99.90;;;;;;5135970;27;20112;-69
2022/11/27 05:43:02;;;;;;;6.20;2.38;;;6.80;99.90;;;;;;5117479;27;20490;-69
2022/11/27 05:45:28;;;;;;;4.47;2.60;;;6.50;99.90;;;;;;5118349;27;20054;-69
2022/11/27 05:47:54;;;;;;;5.65;2.58;;;6.20;99.90;;;;;;5136064;27;20382;-69
2022/11/27 05:50:19;;;;;;;7.38;2.10;;;5.90;99.90;;;;;;5117937;27;20043;-69
2022/11/27 05:52:45;;;;;;;5.80;2.53;;;6.40;99.90;;;;;;5136345;27;20134;-69
2022/11/27 05:55:11;;;;;;;4.68;2.50;;;5.90;99.90;;;;;;5136012;27;20059;-69
2022/11/27 05:57:36;;;;;;;7.05;2.47;;;6.40;99.90;;;;;;5135964;27;20058;-69
2022/11/27 06:00:04;;;;;;;9.30;2.60;;;6.20;99.90;;;;;;5135951;27;20122;-69
2022/11/27 06:02:30;;;;;;;7.22;2.45;;;5.90;99.90;;;;;;5135413;27;20047;-69
2022/11/27 06:04:55;;;;;;;6.50;2.58;;;6.20;99.90;;;;;;5117727;27;20069;-69
2022/11/27 06:07:21;;;;;;;7.70;3.28;;;6.30;99.90;;;;;;5117898;27;20050;-69
2022/11/27 06:09:46;;;;;;;6.32;2.08;;;6.40;99.90;;;;;;5136120;27;20462;-69
2022/11/27 06:12:12;;;;;;;6.72;2.20;;;6.10;99.90;;;;;;5117148;27;20039;-68
2022/11/27 06:14:38;;;;;;;6.57;2.25;;;6.00;99.90;;;;;;5100211;27;20452;-69
2022/11/27 06:17:03;;;;;;;6.68;2.25;;;6.60;99.90;;;;;;5135555;27;20130;-69
2022/11/27 06:19:29;;;;;;;5.85;2.83;;;6.40;99.90;;;;;;5135608;27;20082;-68
2022/11/27 06:21:55;;;;;;;5.60;2.70;;;6.50;99.90;;;;;;5117484;27;20039;-68
2022/11/27 06:24:21;;;;;;;5.30;2.42;;;6.40;99.90;;;;;;5117353;27;20050;-69
2022/11/27 06:26:46;;;;;;;5.63;2.45;;;5.80;99.90;;;;;;5135398;27;20039;-69
2022/11/27 06:29:12;;;;;;;6.72;3.10;;;6.60;99.90;;;;;;5135495;27;20372;-69
2022/11/27 06:31:38;;;;;;;7.90;2.72;;;6.30;99.90;;;;;;5099959;27;20039;-69
2022/11/27 06:34:05;;;;;;;4.70;2.55;;;5.80;99.90;;;;;;5134412;27;20089;-69
2022/11/27 06:36:34;;;;;;;6.00;2.90;;;6.40;99.90;;;;;;5135248;27;20043;-69
2022/11/27 06:39:00;;;;;;;5.63;2.50;;;6.10;99.90;;;;;;5117686;27;20043;-69
2022/11/27 06:41:27;;;;;;;7.90;2.40;;;6.10;99.90;;;;;;5135168;27;20046;-69
2022/11/27 06:43:54;;;;;;;7.03;2.45;;;6.00;99.90;;;;;;5116331;27;20088;-69
2022/11/27 06:46:22;;;;;;;5.43;2.10;;;5.90;99.90;;;;;;5135510;27;20519;-69
2022/11/27 06:48:50;;;;;;;7.85;2.50;;;6.20;99.90;;;;;;5100601;27;20043;-69
2022/11/27 06:51:21;;;;;;;6.07;2.50;;;6.00;99.90;;;;;;5137456;27;20050;-69
2022/11/27 06:53:47;;;;;;;7.63;2.85;;;5.60;99.90;;;;;;5155854;27;20046;-69
2022/11/27 06:56:15;;;;;;;5.95;2.65;;;6.50;99.90;;;;;;5155622;27;20059;-69
2022/11/27 06:58:41;;;;;;;6.82;2.65;;;5.80;99.90;;;;;;5155964;27;20053;-69
2022/11/27 07:01:13;;;;;;;6.28;2.67;;;6.20;99.90;;;;;;5155717;27;20391;-69
2022/11/27 07:03:39;;;;;;;6.65;2.40;;;5.50;99.90;;;;;;5151807;27;20479;-69
2022/11/27 07:06:06;;;;;;;7.10;2.45;;;5.90;99.90;;;;;;5142562;27;20047;-69
2022/11/27 07:08:33;;;;;;;8.45;2.60;;;5.60;99.90;;;;;;5144281;27;20043;-69
2022/11/27 07:11:08;;;;;;;5.65;2.55;;;6.00;99.90;;;;;;5125633;27;20079;-69
2022/11/27 07:13:33;;;;;;;9.25;3.42;;;6.60;99.90;;;;;;5142455;27;20553;-69
2022/11/27 07:16:04;;;;;;;6.28;2.92;;;6.00;99.90;;;;;;5143241;27;20130;-69
2022/11/27 07:18:33;;;;;;;5.80;2.63;;;5.70;99.90;;;;;;5145028;27;20042;-69
2022/11/27 07:20:58;;;;;;;9.45;2.90;;;5.60;99.90;;;;;;5142978;27;20043;-69
2022/11/27 07:23:24;;;;;;;8.50;2.38;;;6.60;99.90;;;;;;5142824;27;20393;-69
2022/11/27 07:25:50;;;;;;;6.63;2.85;;;5.90;99.90;;;;;;5144157;27;20067;-69
2022/11/27 07:28:15;;;;;;;6.88;2.42;;;6.10;99.90;;;;;;5142468;27;20118;-69
2022/11/27 07:30:41;;;;;;;6.63;2.47;;;6.10;99.90;;;;;;5143465;27;20038;-69
2022/11/27 07:33:07;;;;;;;3.80;2.22;;;6.10;99.90;;;;;;5144140;27;20501;-69
2022/11/27 07:35:32;;;;;;;4.72;2.50;;;6.20;99.90;;;;;;5142309;27;20047;-69
2022/11/27 07:37:58;;;;;;;5.90;2.60;;;6.00;99.90;;;;;;5143948;27;20031;-69
2022/11/27 07:40:24;;;;;;;5.45;2.67;;;6.00;99.90;;;;;;5125320;27;20035;-69
2022/11/27 07:42:49;;;;;;;4.60;2.17;;;5.70;99.90;;;;;;5123459;27;20181;-69
2022/11/27 07:45:15;;;;;;;6.65;3.03;;;5.40;99.90;;;;;;5126673;27;20041;-69
2022/11/27 07:47:41;;;;;;;6.15;2.28;;;5.80;99.90;;;;;;5147263;27;20039;-69
2022/11/27 07:50:08;;;;;;;5.80;2.00;;;6.20;99.90;;;;;;5149431;27;20047;-69
2022/11/27 07:52:35;;;;;;;7.78;2.58;;;5.60;99.90;;;;;;5147084;27;20051;-69
2022/11/27 07:55:01;;;;;;;5.15;2.95;;;6.30;99.90;;;;;;5119988;27;20059;-69
2022/11/27 07:57:27;;;;;;;5.32;2.72;;;6.00;99.90;;;;;;5120311;27;20463;-69
2022/11/27 07:59:53;;;;;;;5.28;2.80;;;6.30;99.90;;;;;;5138246;27;20049;-70
2022/11/27 08:02:19;;;;;;;6.72;2.70;;;5.90;99.90;;;;;;5138311;27;20039;-69
2022/11/27 08:04:44;;;;;;;8.55;2.78;;;5.90;99.90;;;;;;5138340;27;20130;-69
2022/11/27 08:07:10;;;;;;;6.25;2.90;;;5.90;99.90;;;;;;5138281;27;20090;-69
2022/11/27 08:09:38;;;;;;;5.93;2.85;;;6.00;99.90;;;;;;5119938;27;20066;-69
2022/11/27 08:12:05;;;;;;;6.20;2.70;;;5.80;99.90;;;;;;5137477;27;20057;-70
2022/11/27 08:14:30;;;;;;;7.25;2.90;;;5.80;99.90;;;;;;5137978;27;20490;-69
2022/11/27 08:16:56;;;;;;;5.43;2.63;;;6.10;99.90;;;;;;5119784;27;20047;-69
2022/11/27 08:19:22;;;;;;;5.00;2.65;;;6.40;99.90;;;;;;5138236;27;20046;-69
2022/11/27 08:21:47;;;;;;;7.47;2.25;;;6.50;99.90;;;;;;5119617;27;20043;-68
2022/11/27 08:24:13;;;;;;;7.63;3.10;;;6.10;99.90;;;;;;5137756;27;20051;-69
2022/11/27 08:26:39;;;;;;;6.72;3.30;;;6.20;99.90;;;;;;5138341;27;20043;-69
2022/11/27 08:29:11;;;;;;;8.27;3.22;;;5.90;99.90;;;;;;5137914;27;20130;-69
2022/11/27 08:31:36;;;;;;;6.65;2.83;;;6.60;99.90;;;;;;5137680;27;20058;-69
2022/11/27 08:34:02;;;;;;;6.15;2.58;;;6.10;99.90;;;;;;5119620;27;20039;-69
2022/11/27 08:36:28;;;;;;;4.97;2.47;;;6.20;99.90;;;;;;5119401;27;20043;-69
2022/11/27 08:38:55;;;;;;;8.52;3.10;;;6.00;99.90;;;;;;5137582;27;20039;-69
2022/11/27 08:41:21;;;;;;;6.93;2.90;;;6.00;99.90;;;;;;5137218;27;20510;-69
2022/11/27 08:43:47;;;;;;;8.27;3.17;;;6.50;99.90;;;;;;5136748;27;20122;-69
2022/11/27 08:46:13;;;;;;;6.57;3.05;;;6.50;99.90;;;;;;5119029;27;20075;-73
2022/11/27 08:48:39;;;;;;;6.45;3.17;;;6.00;99.90;;;;;;5122318;27;20042;-74
2022/11/27 08:51:10;;;;;;;10.35;3.40;;;6.30;99.90;;;;;;5113184;27;20051;-74
2022/11/27 08:53:36;;;;;;;7.57;3.08;;;5.90;99.90;;;;;;5122975;27;20062;-72
2022/11/27 08:56:17;;;;;;;9.30;3.63;;;6.90;99.90;;;;;;5136492;27;20063;-72
2022/11/27 08:58:43;;;;;;;5.68;2.63;;;6.10;99.90;;;;;;5136400;27;20402;-73
2022/11/27 09:01:15;;;;;;;8.57;3.38;;;6.00;99.90;;;;;;5119341;27;20475;-73
2022/11/27 09:03:41;;;;;;;8.75;3.38;;;6.20;99.90;;;;;;5101932;27;20483;-73
2022/11/27 09:06:12;;;;;;;8.82;4.45;;;6.80;99.90;;;;;;5137266;27;20065;-73
2022/11/27 09:08:39;;;;;;;5.65;3.17;;;6.20;99.90;;;;;;5119076;27;20078;-73
2022/11/27 09:11:06;;;;;;;6.88;4.25;;;6.20;99.90;;;;;;5118435;27;20047;-72
2022/11/27 09:13:35;;;;;;;8.60;4.32;;;6.30;99.90;;;;;;5136494;27;20384;-73
2022/11/27 09:16:03;;;;;;;10.55;4.72;;;6.60;99.90;;;;;;5119700;27;20379;-72
2022/11/27 09:18:28;;;;;;;7.38;3.42;;;6.50;99.90;;;;;;5136938;27;20042;-72
2022/11/27 09:21:00;;;;;;;5.55;3.22;;;6.40;99.90;;;;;;5118283;27;20402;-73
2022/11/27 09:23:26;;;;;;;5.68;2.92;;;6.50;99.90;;;;;;5136875;27;20043;-73
2022/11/27 09:25:52;;;;;;;5.95;2.92;;;7.10;99.90;;;;;;5118654;27;20047;-72
2022/11/27 09:28:18;;;;;;;6.90;2.95;;;6.50;99.90;;;;;;5118626;27;20096;-72
2022/11/27 09:30:44;;;;;;;7.28;3.00;;;6.30;99.90;;;;;;5101454;27;20043;-73
2022/11/27 09:33:09;;;;;;;9.55;3.65;;;7.10;99.90;;;;;;5101813;27;20130;-72
2022/11/27 09:35:38;;;;;;;7.40;3.45;;;6.50;99.90;;;;;;5136561;27;20047;-73
2022/11/27 09:38:04;;;;;;;5.80;3.97;;;6.50;99.90;;;;;;5145191;27;20053;-73
2022/11/27 09:40:30;;;;;;;6.85;3.42;;;6.40;99.90;;;;;;5127970;27;20122;-75
2022/11/27 09:43:05;;;;;;;7.25;3.13;;;7.20;99.90;;;;;;5126358;27;20131;-72
2022/11/27 09:45:31;;;;;;;7.43;3.47;;;6.90;99.90;;;;;;5127502;27;20057;-72
2022/11/27 09:48:07;;;;;;;6.03;2.95;;;6.60;99.90;;;;;;5128509;27;20083;-72
2022/11/27 09:50:49;;;;;;;6.28;3.05;;;6.50;99.90;;;;;;5111612;27;20058;-73
2022/11/27 09:53:23;;;;;;;9.88;3.72;;;6.60;99.90;;;;;;5146699;27;20129;-73
2022/11/27 09:55:52;;;;;;;8.43;4.78;;;6.30;99.90;;;;;;5121525;27;20047;-72
2022/11/27 09:58:39;;;;;;;8.70;4.15;;;6.90;99.90;;;;;;5123371;27;20516;-71
2022/11/27 10:01:16;;;;;;;8.98;4.10;;;6.40;99.90;;;;;;5117974;27;20092;-72
2022/11/27 10:03:44;;;;;;;6.57;3.95;;;6.40;99.90;;;;;;5113979;28;20043;-76
2022/11/27 10:06:36;;;;;;;8.90;5.13;;;6.30;99.90;;;;;;5114543;28;20123;-74
2022/11/27 10:09:05;;;;;;;7.88;3.55;;;6.30;99.90;;;;;;5118682;27;20047;-74
2022/11/27 10:11:42;;;;;;;8.35;3.75;;;6.50;99.90;;;;;;5120980;27;20052;-73
2022/11/27 10:14:55;;;;;;;11.15;3.75;;;6.40;99.90;;;;;;5113333;28;20044;-73
2022/11/27 10:17:40;;;;;;;6.22;3.15;;;6.30;99.90;;;;;;5061779;28;20157;-75
2022/11/27 10:20:27;;;;;;;7.65;3.63;;;6.50;99.90;;;;;;5116954;27;20083;-79
2022/11/27 10:23:23;;;;;;;6.05;3.20;;;6.10;99.90;;;;;;5101902;27;20047;-81
2022/11/27 10:25:53;;;;;;;8.02;3.33;;;6.30;99.90;;;;;;5120120;27;20043;-79
2022/11/27 10:28:19;;;;;;;8.32;3.30;;;6.60;99.90;;;;;;5124447;27;20432;-82
2022/11/27 10:31:13;;;;;;;8.07;3.17;;;6.50;99.90;;;;;;5123230;27;20043;-79
2022/11/27 10:33:50;;;;;;;8.38;3.83;;;6.50;99.90;;;;;;5101526;27;20146;-81
2022/11/27 10:36:27;;;;;;;8.90;4.15;;;6.40;99.90;;;;;;5114082;27;20124;-85
2022/11/27 10:38:54;;;;;;;8.85;4.28;;;6.60;99.90;;;;;;5112160;28;20042;-83
2022/11/27 10:41:25;;;;;;;7.53;3.90;;;6.90;99.90;;;;;;5110338;28;20058;-76
2022/11/27 10:43:56;;;;;;;8.35;4.07;;;6.50;99.90;;;;;;5113751;28;20123;-74
2022/11/27 10:46:28;;;;;;;7.18;3.60;;;6.50;99.90;;;;;;5112219;28;20108;-82
2022/11/27 10:48:54;;;;;;;8.52;3.60;;;6.60;99.90;;;;;;5113270;28;20047;-79
2022/11/27 10:51:28;;;;;;;9.63;4.40;;;6.50;99.90;;;;;;5114588;28;20047;-75
2022/11/27 10:53:54;;;;;;;11.27;4.40;;;6.80;99.90;;;;;;5114635;28;20072;-78
2022/11/27 10:56:55;;;;;;;10.38;4.38;;;6.70;99.90;;;;;;5127399;27;20055;-77
2022/11/27 10:59:43;;;;;;;8.20;4.05;;;6.20;99.90;;;;;;5135182;27;20092;-75
2022/11/27 11:02:36;;;;;;;11.02;6.13;;;6.40;99.90;;;;;;5092688;27;20105;-74
2022/11/27 11:05:23;;;;;;;15.00;8.35;;;6.20;99.90;;;;;;5130836;27;20056;-75
2022/11/27 11:08:05;;;;;;;13.30;6.55;;;5.90;99.90;;;;;;5124304;27;20424;-79
2022/11/27 11:10:37;;;;;;;10.68;6.97;;;6.10;99.90;;;;;;5134085;27;20050;-75
2022/11/27 11:13:19;;;;;;;11.00;6.53;;;6.40;99.90;;;;;;5116336;27;20398;-75
2022/11/27 11:15:50;;;;;;;11.20;10.07;;;6.10;99.90;;;;;;5134865;27;20050;-77
2022/11/27 11:18:24;;;;;;;17.17;15.15;;;6.00;99.90;;;;;;5134010;27;20068;-76
2022/11/27 11:20:59;;;;;;;14.52;10.13;;;6.10;99.90;;;;;;5133759;27;20043;-76
2022/11/27 11:23:37;;;;;;;10.32;6.45;;;6.20;99.90;;;;;;5134955;27;20055;-73
2022/11/27 11:26:25;;;;;;;14.73;12.27;;;6.30;99.90;;;;;;5133703;28;20047;-76
2022/11/27 11:28:55;;;;;;;11.52;6.50;;;6.40;99.90;;;;;;5134377;27;20478;-78
2022/11/27 11:31:28;;;;;;;11.23;5.07;;;6.30;99.90;;;;;;5134830;27;20070;-80
2022/11/27 11:34:01;;;;;;;11.40;7.43;;;6.20;99.90;;;;;;5117281;28;20406;-89
2022/11/27 11:36:29;;;;;;;8.40;5.40;;;6.30;99.90;;;;;;5133483;28;20100;-85
2022/11/27 11:38:55;;;;;;;10.75;6.72;;;6.20;99.90;;;;;;5117050;27;20046;-72
2022/11/27 11:41:23;;;;;;;10.85;6.63;;;6.30;99.90;;;;;;5096075;28;20056;-79
2022/11/27 11:43:55;;;;;;;13.93;9.93;;;6.90;99.90;;;;;;5112443;28;20043;-77
2022/11/27 11:46:24;;;;;;;13.40;8.37;;;6.80;99.90;;;;;;5096760;28;20483;-83
2022/11/27 11:49:05;;;;;;;14.05;8.48;;;6.40;99.90;;;;;;5096085;28;20809;-77
2022/11/27 11:51:51;;;;;;;16.95;11.00;;;6.20;99.90;;;;;;5096126;28;20043;-86
2022/11/27 11:54:43;;;;;;;12.38;7.90;;;6.30;99.90;;;;;;5114491;28;20073;-76
2022/11/27 11:57:24;;;;;;;11.98;7.13;;;6.10;99.90;;;;;;5113996;28;20048;-80
2022/11/27 12:00:13;;;;;;;11.60;6.18;;;6.00;99.90;;;;;;5096423;28;20394;-75
2022/11/27 12:02:47;;;;;;;8.70;5.30;;;6.30;99.90;;;;;;5094695;28;20425;-77
2022/11/27 12:05:20;;;;;;;9.27;5.85;;;6.10;99.90;;;;;;5111601;28;20094;-83
2022/11/27 12:07:57;;;;;;;11.20;6.18;;;6.60;99.90;;;;;;5095732;28;20039;-77
2022/11/27 12:10:29;;;;;;;8.40;4.80;;;6.20;99.90;;;;;;5113075;28;20050;-80
2022/11/27 12:13:13;;;;;;;10.82;5.32;;;6.10;99.90;;;;;;5095197;28;20487;-80
2022/11/27 12:16:08;;;;;;;9.55;5.28;;;6.50;99.90;;;;;;5113196;28;20391;-77
2022/11/27 12:18:47;;;;;;;9.75;4.90;;;6.30;99.90;;;;;;5112382;28;20113;-77
2022/11/27 12:21:14;;;;;;;7.72;4.63;;;6.30;99.90;;;;;;5114144;28;20391;-83
2022/11/27 12:23:49;;;;;;;8.55;4.80;;;6.40;99.90;;;;;;5096422;28;20472;-83
2022/11/27 12:26:33;;;;;;;8.25;4.20;;;6.00;99.90;;;;;;5095214;28;20491;-76
2022/11/27 12:29:44;;;;;;;12.30;5.15;;;6.30;99.90;;;;;;5095406;28;20043;-78
2022/11/27 12:32:25;;;;;;;9.18;4.38;;;6.10;99.90;;;;;;5066196;28;20063;-79
2022/11/27 12:35:22;;;;;;;10.00;5.05;;;6.20;99.90;;;;;;5116339;28;20047;-73
2022/11/27 12:38:06;;;;;;;11.02;4.88;;;6.10;99.90;;;;;;5111861;27;20043;-78
2022/11/27 12:40:55;;;;;;;9.85;5.43;;;6.30;99.90;;;;;;5113311;28;20048;-76
2022/11/27 12:43:46;;;;;;;8.75;4.20;;;6.20;99.90;;;;;;5113389;28;20135;-73
2022/11/27 12:46:21;;;;;;;9.80;4.95;;;6.80;99.90;;;;;;5103328;28;20078;-76
2022/11/27 12:48:51;;;;;;;10.90;7.78;;;6.20;99.90;;;;;;5113231;28;20043;-76
2022/11/27 12:51:41;;;;;;;8.65;5.32;;;6.40;99.90;;;;;;5111727;28;20047;-82
2022/11/27 12:54:17;;;;;;;9.60;5.47;;;6.20;99.90;;;;;;5111953;28;20127;-75
2022/11/27 12:56:50;;;;;;;12.73;7.25;;;6.60;99.90;;;;;;5111484;28;20202;-73
2022/11/27 12:59:34;;;;;;;;;;;6.40;99.90;;;;;;5113486;28;20043;-77
2022/11/27 13:02:06;;;;;;;8.63;5.03;;;6.40;99.90;;;;;;5111920;28;19973;-74
2022/11/27 13:04:41;;;;;;;11.75;5.55;;;6.30;99.90;;;;;;5111610;28;20086;-76
2022/11/27 13:07:18;;;;;;;15.68;8.27;;;6.50;99.90;;;;;;5111857;28;20039;-76
2022/11/27 13:09:55;;;;;;;10.02;5.32;;;6.10;99.90;;;;;;5094582;28;20513;-75
2022/11/27 13:12:31;;;;;;;11.77;5.78;;;6.90;99.90;;;;;;5111320;28;20409;-74